sensor_id;sensor_type;location;lat;lon;timestamp;P1;durP1;ratioP1;P2;durP2;ratioP2
56255;SDS011;57229;51.432;-2.598;2023-03-23T00:00:56;9.38;;;4.68;;
56255;SDS011;57229;51.432;-2.598;2023-03-23T00:03:22;20.65;;;5.53;;
56255;SDS011;57229;51.432;-2.598;2023-03-23T00:05:51;19.35;;;5.72;;
56255;SDS011;57229;51.432;-2.598;2023-03-23T00:08:18;14.02;;;4.95;;
56255;SDS011;57229;51.432;-2.598;2023-03-23T00:10:51;15.82;;;5.30;;
56255;SDS011;57229;51.432;-2.598;2023-03-23T00:13:21;21.95;;;5.88;;
56255;SDS011;57229;51.432;-2.598;2023-03-23T00:15:51;28.45;;;5.93;;
56255;SDS011;57229;51.432;-2.598;2023-03-23T00:18:17;20.50;;;4.95;;
56255;SDS011;57229;51.432;-2.598;2023-03-23T00:20:50;13.38;;;4.95;;
56255;SDS011;57229;51.432;-2.598;2023-03-23T00:23:18;17.80;;;5.00;;
56255;SDS011;57229;51.432;-2.598;2023-03-23T00:25:46;17.65;;;5.40;;
56255;SDS011;57229;51.432;-2.598;2023-03-23T00:28:13;19.25;;;5.32;;
56255;SDS011;57229;51.432;-2.598;2023-03-23T00:30:40;24.10;;;5.75;;
56255;SDS011;57229;51.432;-2.598;2023-03-23T00:33:07;19.20;;;5.22;;
56255;SDS011;57229;51.432;-2.598;2023-03-23T00:35:33;23.17;;;6.55;;
56255;SDS011;57229;51.432;-2.598;2023-03-23T00:38:00;17.00;;;5.18;;
56255;SDS011;57229;51.432;-2.598;2023-03-23T00:40:27;28.98;;;5.70;;
56255;SDS011;57229;51.432;-2.598;2023-03-23T00:42:53;18.92;;;5.45;;
56255;SDS011;57229;51.432;-2.598;2023-03-23T00:45:19;21.50;;;5.40;;
56255;SDS011;57229;51.432;-2.598;2023-03-23T00:47:44;17.13;;;5.68;;
56255;SDS011;57229;51.432;-2.598;2023-03-23T00:50:11;17.55;;;6.10;;
56255;SDS011;57229;51.432;-2.598;2023-03-23T00:52:39;19.75;;;5.35;;
56255;SDS011;57229;51.432;-2.598;2023-03-23T00:55:06;23.15;;;5.53;;
56255;SDS011;57229;51.432;-2.598;2023-03-23T00:57:32;18.42;;;5.70;;
56255;SDS011;57229;51.432;-2.598;2023-03-23T00:59:57;19.45;;;5.15;;
56255;SDS011;57229;51.432;-2.598;2023-03-23T01:02:23;20.98;;;5.50;;
56255;SDS011;57229;51.432;-2.598;2023-03-23T01:04:52;28.45;;;6.35;;
56255;SDS011;57229;51.432;-2.598;2023-03-23T01:07:19;17.20;;;5.03;;
56255;SDS011;57229;51.432;-2.598;2023-03-23T01:09:48;21.70;;;6.20;;
56255;SDS011;57229;51.432;-2.598;2023-03-23T01:12:13;15.57;;;5.13;;
56255;SDS011;57229;51.432;-2.598;2023-03-23T01:14:40;23.77;;;5.55;;
56255;SDS011;57229;51.432;-2.598;2023-03-23T01:17:07;20.23;;;5.63;;
56255;SDS011;57229;51.432;-2.598;2023-03-23T01:19:32;17.77;;;5.25;;
56255;SDS011;57229;51.432;-2.598;2023-03-23T01:21:58;16.85;;;5.18;;
56255;SDS011;57229;51.432;-2.598;2023-03-23T01:24:24;26.23;;;5.78;;
56255;SDS011;57229;51.432;-2.598;2023-03-23T01:26:49;13.63;;;5.15;;
56255;SDS011;57229;51.432;-2.598;2023-03-23T01:29:15;18.42;;;5.53;;
56255;SDS011;57229;51.432;-2.598;2023-03-23T01:31:41;22.23;;;5.45;;
56255;SDS011;57229;51.432;-2.598;2023-03-23T01:34:08;28.00;;;5.97;;
56255;SDS011;57229;51.432;-2.598;2023-03-23T01:36:35;26.38;;;6.03;;
56255;SDS011;57229;51.432;-2.598;2023-03-23T01:39:02;21.77;;;5.70;;
56255;SDS011;57229;51.432;-2.598;2023-03-23T01:41:30;29.08;;;5.85;;
56255;SDS011;57229;51.432;-2.598;2023-03-23T01:43:57;25.65;;;5.75;;
56255;SDS011;57229;51.432;-2.598;2023-03-23T01:46:32;24.58;;;5.68;;
56255;SDS011;57229;51.432;-2.598;2023-03-23T01:49:09;19.25;;;5.28;;
56255;SDS011;57229;51.432;-2.598;2023-03-23T01:52:00;26.92;;;5.80;;
56255;SDS011;57229;51.432;-2.598;2023-03-23T01:54:35;19.77;;;4.90;;
56255;SDS011;57229;51.432;-2.598;2023-03-23T01:57:11;17.60;;;6.25;;
56255;SDS011;57229;51.432;-2.598;2023-03-23T01:59:40;35.22;;;5.78;;
56255;SDS011;57229;51.432;-2.598;2023-03-23T02:02:10;21.05;;;6.45;;
56255;SDS011;57229;51.432;-2.598;2023-03-23T02:04:37;15.20;;;5.50;;
56255;SDS011;57229;51.432;-2.598;2023-03-23T02:07:04;26.55;;;6.53;;
56255;SDS011;57229;51.432;-2.598;2023-03-23T02:09:30;24.48;;;6.80;;
56255;SDS011;57229;51.432;-2.598;2023-03-23T02:11:56;23.60;;;5.30;;
56255;SDS011;57229;51.432;-2.598;2023-03-23T02:14:23;18.65;;;5.43;;
56255;SDS011;57229;51.432;-2.598;2023-03-23T02:38:42;17.90;;;5.15;;
56255;SDS011;57229;51.432;-2.598;2023-03-23T02:41:17;26.75;;;6.53;;
56255;SDS011;57229;51.432;-2.598;2023-03-23T02:43:46;20.40;;;5.68;;
56255;SDS011;57229;51.432;-2.598;2023-03-23T02:46:14;23.40;;;5.57;;
56255;SDS011;57229;51.432;-2.598;2023-03-23T02:48:42;18.95;;;5.28;;
56255;SDS011;57229;51.432;-2.598;2023-03-23T02:51:10;20.08;;;5.13;;
56255;SDS011;57229;51.432;-2.598;2023-03-23T02:53:39;18.85;;;5.68;;
56255;SDS011;57229;51.432;-2.598;2023-03-23T02:56:07;21.42;;;5.47;;
56255;SDS011;57229;51.432;-2.598;2023-03-23T02:58:34;17.88;;;5.10;;
56255;SDS011;57229;51.432;-2.598;2023-03-23T03:03:57;12.52;;;4.55;;
56255;SDS011;57229;51.432;-2.598;2023-03-23T03:06:32;15.77;;;5.50;;
56255;SDS011;57229;51.432;-2.598;2023-03-23T03:09:03;23.33;;;5.18;;
56255;SDS011;57229;51.432;-2.598;2023-03-23T03:11:39;19.08;;;4.97;;
56255;SDS011;57229;51.432;-2.598;2023-03-23T03:15:02;21.38;;;6.13;;
56255;SDS011;57229;51.432;-2.598;2023-03-23T03:17:08;16.33;;;5.05;;
56255;SDS011;57229;51.432;-2.598;2023-03-23T03:19:43;17.88;;;5.03;;
56255;SDS011;57229;51.432;-2.598;2023-03-23T03:22:13;14.35;;;5.60;;
56255;SDS011;57229;51.432;-2.598;2023-03-23T03:24:39;20.23;;;5.47;;
56255;SDS011;57229;51.432;-2.598;2023-03-23T03:27:11;14.32;;;4.72;;
56255;SDS011;57229;51.432;-2.598;2023-03-23T03:29:41;18.92;;;5.43;;
56255;SDS011;57229;51.432;-2.598;2023-03-23T03:32:13;18.75;;;5.50;;
56255;SDS011;57229;51.432;-2.598;2023-03-23T03:34:43;27.98;;;6.05;;
56255;SDS011;57229;51.432;-2.598;2023-03-23T03:37:09;16.98;;;5.55;;
56255;SDS011;57229;51.432;-2.598;2023-03-23T03:39:37;23.85;;;4.88;;
56255;SDS011;57229;51.432;-2.598;2023-03-23T03:42:03;23.33;;;5.45;;
56255;SDS011;57229;51.432;-2.598;2023-03-23T03:44:30;17.15;;;4.97;;
56255;SDS011;57229;51.432;-2.598;2023-03-23T03:46:56;15.98;;;4.95;;
56255;SDS011;57229;51.432;-2.598;2023-03-23T03:49:22;24.50;;;5.30;;
56255;SDS011;57229;51.432;-2.598;2023-03-23T03:51:48;17.10;;;4.90;;
56255;SDS011;57229;51.432;-2.598;2023-03-23T03:54:14;21.08;;;5.60;;
56255;SDS011;57229;51.432;-2.598;2023-03-23T03:56:40;16.13;;;4.85;;
56255;SDS011;57229;51.432;-2.598;2023-03-23T03:59:07;18.70;;;5.07;;
56255;SDS011;57229;51.432;-2.598;2023-03-23T04:01:34;26.42;;;5.53;;
56255;SDS011;57229;51.432;-2.598;2023-03-23T04:04:01;20.90;;;4.85;;
56255;SDS011;57229;51.432;-2.598;2023-03-23T04:06:28;20.08;;;5.53;;
56255;SDS011;57229;51.432;-2.598;2023-03-23T04:08:55;15.50;;;5.20;;
56255;SDS011;57229;51.432;-2.598;2023-03-23T04:11:24;14.82;;;4.82;;
56255;SDS011;57229;51.432;-2.598;2023-03-23T04:13:50;15.05;;;5.47;;
56255;SDS011;57229;51.432;-2.598;2023-03-23T04:16:16;19.75;;;5.38;;
56255;SDS011;57229;51.432;-2.598;2023-03-23T04:18:42;17.40;;;5.47;;
56255;SDS011;57229;51.432;-2.598;2023-03-23T04:21:10;15.52;;;5.10;;
56255;SDS011;57229;51.432;-2.598;2023-03-23T04:23:36;19.25;;;5.82;;
56255;SDS011;57229;51.432;-2.598;2023-03-23T04:26:02;19.10;;;5.03;;
56255;SDS011;57229;51.432;-2.598;2023-03-23T04:28:29;20.65;;;5.57;;
56255;SDS011;57229;51.432;-2.598;2023-03-23T04:30:58;23.23;;;4.80;;
56255;SDS011;57229;51.432;-2.598;2023-03-23T04:33:25;15.85;;;5.07;;
56255;SDS011;57229;51.432;-2.598;2023-03-23T04:35:53;27.55;;;5.70;;
56255;SDS011;57229;51.432;-2.598;2023-03-23T04:38:21;26.17;;;5.63;;
56255;SDS011;57229;51.432;-2.598;2023-03-23T04:40:49;18.15;;;5.88;;
56255;SDS011;57229;51.432;-2.598;2023-03-23T04:43:17;25.27;;;6.00;;
56255;SDS011;57229;51.432;-2.598;2023-03-23T04:45:46;23.20;;;6.45;;
56255;SDS011;57229;51.432;-2.598;2023-03-23T04:48:16;20.23;;;4.90;;
56255;SDS011;57229;51.432;-2.598;2023-03-23T04:50:44;23.08;;;5.97;;
56255;SDS011;57229;51.432;-2.598;2023-03-23T04:53:10;16.95;;;5.53;;
56255;SDS011;57229;51.432;-2.598;2023-03-23T04:55:36;22.83;;;5.43;;
56255;SDS011;57229;51.432;-2.598;2023-03-23T04:58:05;21.73;;;5.60;;
56255;SDS011;57229;51.432;-2.598;2023-03-23T05:00:32;24.63;;;5.78;;
56255;SDS011;57229;51.432;-2.598;2023-03-23T05:02:59;30.08;;;6.07;;
56255;SDS011;57229;51.432;-2.598;2023-03-23T05:05:26;17.17;;;5.43;;
56255;SDS011;57229;51.432;-2.598;2023-03-23T05:07:54;27.38;;;5.57;;
56255;SDS011;57229;51.432;-2.598;2023-03-23T05:10:20;24.27;;;5.55;;
56255;SDS011;57229;51.432;-2.598;2023-03-23T05:12:46;27.73;;;5.63;;
56255;SDS011;57229;51.432;-2.598;2023-03-23T05:15:12;21.67;;;5.22;;
56255;SDS011;57229;51.432;-2.598;2023-03-23T05:17:39;24.65;;;5.57;;
56255;SDS011;57229;51.432;-2.598;2023-03-23T05:20:14;31.58;;;6.57;;
56255;SDS011;57229;51.432;-2.598;2023-03-23T05:22:45;28.88;;;5.30;;
56255;SDS011;57229;51.432;-2.598;2023-03-23T05:25:14;22.00;;;6.40;;
56255;SDS011;57229;51.432;-2.598;2023-03-23T05:27:44;26.10;;;5.95;;
56255;SDS011;57229;51.432;-2.598;2023-03-23T05:30:14;28.05;;;5.15;;
56255;SDS011;57229;51.432;-2.598;2023-03-23T05:32:42;28.70;;;5.28;;
56255;SDS011;57229;51.432;-2.598;2023-03-23T05:35:10;22.63;;;6.35;;
56255;SDS011;57229;51.432;-2.598;2023-03-23T05:37:37;26.02;;;6.22;;
56255;SDS011;57229;51.432;-2.598;2023-03-23T05:40:04;34.25;;;6.43;;
56255;SDS011;57229;51.432;-2.598;2023-03-23T05:42:32;20.88;;;5.20;;
56255;SDS011;57229;51.432;-2.598;2023-03-23T05:44:59;15.70;;;5.13;;
56255;SDS011;57229;51.432;-2.598;2023-03-23T05:47:28;25.10;;;5.72;;
56255;SDS011;57229;51.432;-2.598;2023-03-23T05:49:55;27.50;;;6.18;;
56255;SDS011;57229;51.432;-2.598;2023-03-23T05:52:21;19.85;;;5.35;;
56255;SDS011;57229;51.432;-2.598;2023-03-23T05:54:52;31.02;;;6.25;;
56255;SDS011;57229;51.432;-2.598;2023-03-23T05:57:19;26.20;;;6.10;;
56255;SDS011;57229;51.432;-2.598;2023-03-23T05:59:52;23.95;;;5.38;;
56255;SDS011;57229;51.432;-2.598;2023-03-23T06:02:18;34.50;;;5.78;;
56255;SDS011;57229;51.432;-2.598;2023-03-23T06:05:16;23.02;;;6.55;;
56255;SDS011;57229;51.432;-2.598;2023-03-23T06:07:47;28.83;;;5.47;;
56255;SDS011;57229;51.432;-2.598;2023-03-23T06:10:13;26.83;;;6.25;;
56255;SDS011;57229;51.432;-2.598;2023-03-23T06:12:39;35.08;;;6.30;;
56255;SDS011;57229;51.432;-2.598;2023-03-23T06:15:05;22.08;;;5.57;;
56255;SDS011;57229;51.432;-2.598;2023-03-23T06:18:18;28.58;;;6.15;;
56255;SDS011;57229;51.432;-2.598;2023-03-23T06:20:39;27.48;;;5.70;;
56255;SDS011;57229;51.432;-2.598;2023-03-23T06:23:05;39.08;;;7.53;;
56255;SDS011;57229;51.432;-2.598;2023-03-23T06:25:31;31.30;;;5.95;;
56255;SDS011;57229;51.432;-2.598;2023-03-23T06:27:58;27.40;;;6.00;;
56255;SDS011;57229;51.432;-2.598;2023-03-23T06:30:24;28.88;;;6.13;;
56255;SDS011;57229;51.432;-2.598;2023-03-23T06:32:51;34.67;;;6.22;;
56255;SDS011;57229;51.432;-2.598;2023-03-23T06:35:18;31.80;;;6.43;;
56255;SDS011;57229;51.432;-2.598;2023-03-23T06:37:45;25.95;;;6.05;;
56255;SDS011;57229;51.432;-2.598;2023-03-23T06:40:11;29.08;;;6.10;;
56255;SDS011;57229;51.432;-2.598;2023-03-23T06:42:36;33.50;;;6.60;;
56255;SDS011;57229;51.432;-2.598;2023-03-23T06:45:03;28.90;;;6.53;;
56255;SDS011;57229;51.432;-2.598;2023-03-23T06:47:36;27.23;;;6.60;;
56255;SDS011;57229;51.432;-2.598;2023-03-23T06:50:17;24.90;;;6.28;;
56255;SDS011;57229;51.432;-2.598;2023-03-23T06:52:46;28.63;;;6.32;;
56255;SDS011;57229;51.432;-2.598;2023-03-23T06:55:14;29.58;;;7.18;;
56255;SDS011;57229;51.432;-2.598;2023-03-23T06:57:40;39.45;;;6.75;;
56255;SDS011;57229;51.432;-2.598;2023-03-23T07:00:06;28.30;;;6.53;;
56255;SDS011;57229;51.432;-2.598;2023-03-23T07:02:57;31.33;;;7.43;;
56255;SDS011;57229;51.432;-2.598;2023-03-23T07:05:23;37.92;;;7.18;;
56255;SDS011;57229;51.432;-2.598;2023-03-23T07:07:49;20.00;;;6.10;;
56255;SDS011;57229;51.432;-2.598;2023-03-23T07:10:15;22.10;;;6.30;;
56255;SDS011;57229;51.432;-2.598;2023-03-23T07:12:41;25.25;;;6.22;;
56255;SDS011;57229;51.432;-2.598;2023-03-23T07:15:08;31.48;;;6.85;;
56255;SDS011;57229;51.432;-2.598;2023-03-23T07:17:36;26.60;;;7.10;;
56255;SDS011;57229;51.432;-2.598;2023-03-23T07:20:08;22.13;;;6.25;;
56255;SDS011;57229;51.432;-2.598;2023-03-23T07:25:30;23.70;;;6.40;;
56255;SDS011;57229;51.432;-2.598;2023-03-23T07:27:58;22.17;;;6.22;;
56255;SDS011;57229;51.432;-2.598;2023-03-23T07:30:37;15.77;;;6.68;;
56255;SDS011;57229;51.432;-2.598;2023-03-23T07:33:04;19.20;;;6.05;;
56255;SDS011;57229;51.432;-2.598;2023-03-23T07:35:31;22.42;;;7.03;;
56255;SDS011;57229;51.432;-2.598;2023-03-23T07:40:42;25.15;;;6.47;;
56255;SDS011;57229;51.432;-2.598;2023-03-23T07:43:09;24.23;;;5.75;;
56255;SDS011;57229;51.432;-2.598;2023-03-23T07:45:34;28.30;;;6.30;;
56255;SDS011;57229;51.432;-2.598;2023-03-23T07:48:04;26.52;;;6.40;;
56255;SDS011;57229;51.432;-2.598;2023-03-23T07:50:30;15.77;;;5.60;;
56255;SDS011;57229;51.432;-2.598;2023-03-23T07:52:57;32.40;;;6.95;;
56255;SDS011;57229;51.432;-2.598;2023-03-23T07:55:32;23.38;;;6.10;;
56255;SDS011;57229;51.432;-2.598;2023-03-23T07:58:02;19.83;;;6.07;;
56255;SDS011;57229;51.432;-2.598;2023-03-23T08:00:28;27.83;;;6.78;;
56255;SDS011;57229;51.432;-2.598;2023-03-23T08:02:55;27.92;;;7.00;;
56255;SDS011;57229;51.432;-2.598;2023-03-23T08:05:25;28.98;;;7.60;;
56255;SDS011;57229;51.432;-2.598;2023-03-23T08:07:53;25.63;;;6.72;;
56255;SDS011;57229;51.432;-2.598;2023-03-23T08:10:30;19.95;;;5.80;;
56255;SDS011;57229;51.432;-2.598;2023-03-23T08:12:56;21.80;;;6.40;;
56255;SDS011;57229;51.432;-2.598;2023-03-23T08:15:24;23.25;;;6.25;;
56255;SDS011;57229;51.432;-2.598;2023-03-23T08:17:50;22.75;;;6.13;;
56255;SDS011;57229;51.432;-2.598;2023-03-23T08:20:16;23.40;;;6.47;;
56255;SDS011;57229;51.432;-2.598;2023-03-23T08:22:56;28.63;;;6.43;;
56255;SDS011;57229;51.432;-2.598;2023-03-23T08:25:28;28.95;;;7.20;;
56255;SDS011;57229;51.432;-2.598;2023-03-23T08:31:23;26.13;;;7.00;;
56255;SDS011;57229;51.432;-2.598;2023-03-23T08:33:50;30.63;;;7.18;;
56255;SDS011;57229;51.432;-2.598;2023-03-23T08:36:17;27.00;;;6.68;;
56255;SDS011;57229;51.432;-2.598;2023-03-23T08:38:43;24.73;;;6.75;;
56255;SDS011;57229;51.432;-2.598;2023-03-23T08:41:11;24.92;;;7.40;;
56255;SDS011;57229;51.432;-2.598;2023-03-23T08:43:39;32.08;;;6.43;;
56255;SDS011;57229;51.432;-2.598;2023-03-23T08:46:06;30.58;;;6.72;;
56255;SDS011;57229;51.432;-2.598;2023-03-23T08:48:35;25.30;;;6.20;;
56255;SDS011;57229;51.432;-2.598;2023-03-23T08:51:06;24.65;;;6.40;;
56255;SDS011;57229;51.432;-2.598;2023-03-23T08:53:38;27.77;;;6.05;;
56255;SDS011;57229;51.432;-2.598;2023-03-23T08:56:12;29.17;;;6.57;;
56255;SDS011;57229;51.432;-2.598;2023-03-23T08:58:49;20.35;;;5.70;;
56255;SDS011;57229;51.432;-2.598;2023-03-23T09:01:24;25.63;;;7.18;;
56255;SDS011;57229;51.432;-2.598;2023-03-23T09:04:11;29.35;;;6.30;;
56255;SDS011;57229;51.432;-2.598;2023-03-23T09:06:51;26.65;;;6.28;;
56255;SDS011;57229;51.432;-2.598;2023-03-23T09:09:18;18.35;;;6.57;;
56255;SDS011;57229;51.432;-2.598;2023-03-23T09:11:44;30.52;;;6.45;;
56255;SDS011;57229;51.432;-2.598;2023-03-23T09:14:10;30.27;;;6.30;;
56255;SDS011;57229;51.432;-2.598;2023-03-23T09:16:36;28.98;;;6.90;;
56255;SDS011;57229;51.432;-2.598;2023-03-23T09:19:05;22.25;;;6.18;;
56255;SDS011;57229;51.432;-2.598;2023-03-23T09:21:34;26.17;;;6.50;;
56255;SDS011;57229;51.432;-2.598;2023-03-23T09:24:00;23.08;;;5.80;;
56255;SDS011;57229;51.432;-2.598;2023-03-23T09:26:26;20.80;;;6.07;;
56255;SDS011;57229;51.432;-2.598;2023-03-23T09:28:53;13.57;;;5.68;;
56255;SDS011;57229;51.432;-2.598;2023-03-23T09:31:24;18.52;;;6.35;;
56255;SDS011;57229;51.432;-2.598;2023-03-23T09:33:54;19.85;;;6.15;;
56255;SDS011;57229;51.432;-2.598;2023-03-23T09:36:31;17.70;;;6.18;;
56255;SDS011;57229;51.432;-2.598;2023-03-23T09:39:04;16.85;;;5.57;;
56255;SDS011;57229;51.432;-2.598;2023-03-23T09:47:34;19.42;;;6.70;;
56255;SDS011;57229;51.432;-2.598;2023-03-23T09:50:17;14.80;;;5.43;;
56255;SDS011;57229;51.432;-2.598;2023-03-23T09:52:57;13.90;;;5.72;;
56255;SDS011;57229;51.432;-2.598;2023-03-23T09:55:26;14.95;;;5.47;;
56255;SDS011;57229;51.432;-2.598;2023-03-23T10:04:21;15.80;;;6.35;;
56255;SDS011;57229;51.432;-2.598;2023-03-23T10:06:56;13.90;;;5.65;;
56255;SDS011;57229;51.432;-2.598;2023-03-23T10:09:27;15.48;;;5.90;;
56255;SDS011;57229;51.432;-2.598;2023-03-23T10:15:02;23.27;;;6.20;;
56255;SDS011;57229;51.432;-2.598;2023-03-23T10:18:06;16.05;;;6.90;;
56255;SDS011;57229;51.432;-2.598;2023-03-23T10:28:58;20.08;;;6.32;;
56255;SDS011;57229;51.432;-2.598;2023-03-23T10:31:33;19.23;;;6.80;;
56255;SDS011;57229;51.432;-2.598;2023-03-23T10:37:05;20.05;;;7.30;;
56255;SDS011;57229;51.432;-2.598;2023-03-23T10:39:53;25.35;;;6.63;;
56255;SDS011;57229;51.432;-2.598;2023-03-23T10:42:32;18.17;;;7.13;;
56255;SDS011;57229;51.432;-2.598;2023-03-23T10:45:15;22.35;;;7.55;;
56255;SDS011;57229;51.432;-2.598;2023-03-23T10:47:52;19.52;;;6.50;;
56255;SDS011;57229;51.432;-2.598;2023-03-23T10:50:38;24.02;;;6.95;;
56255;SDS011;57229;51.432;-2.598;2023-03-23T10:53:16;20.88;;;8.43;;
56255;SDS011;57229;51.432;-2.598;2023-03-23T10:55:44;24.55;;;6.72;;
56255;SDS011;57229;51.432;-2.598;2023-03-23T10:58:26;26.05;;;7.63;;
56255;SDS011;57229;51.432;-2.598;2023-03-23T11:01:04;34.97;;;8.05;;
56255;SDS011;57229;51.432;-2.598;2023-03-23T11:06:07;23.65;;;6.15;;
56255;SDS011;57229;51.432;-2.598;2023-03-23T11:08:37;24.75;;;7.22;;
56255;SDS011;57229;51.432;-2.598;2023-03-23T11:13:59;24.70;;;6.80;;
56255;SDS011;57229;51.432;-2.598;2023-03-23T11:17:05;8.63;;;5.38;;
56255;SDS011;57229;51.432;-2.598;2023-03-23T11:19:53;19.52;;;6.53;;
56255;SDS011;57229;51.432;-2.598;2023-03-23T11:22:35;14.80;;;6.13;;
56255;SDS011;57229;51.432;-2.598;2023-03-23T11:25:05;20.45;;;6.70;;
56255;SDS011;57229;51.432;-2.598;2023-03-23T11:27:55;17.45;;;6.53;;
56255;SDS011;57229;51.432;-2.598;2023-03-23T11:30:25;13.68;;;5.45;;
56255;SDS011;57229;51.432;-2.598;2023-03-23T11:32:59;12.90;;;6.03;;
56255;SDS011;57229;51.432;-2.598;2023-03-23T11:35:53;19.77;;;6.50;;
56255;SDS011;57229;51.432;-2.598;2023-03-23T11:38:28;16.63;;;6.30;;
56255;SDS011;57229;51.432;-2.598;2023-03-23T11:40:55;15.20;;;6.30;;
56255;SDS011;57229;51.432;-2.598;2023-03-23T11:43:22;18.38;;;6.43;;
56255;SDS011;57229;51.432;-2.598;2023-03-23T11:49:10;14.15;;;5.70;;
56255;SDS011;57229;51.432;-2.598;2023-03-23T11:52:05;15.13;;;5.78;;
56255;SDS011;57229;51.432;-2.598;2023-03-23T11:54:50;14.57;;;5.65;;
56255;SDS011;57229;51.432;-2.598;2023-03-23T11:57:33;15.35;;;6.15;;
56255;SDS011;57229;51.432;-2.598;2023-03-23T12:00:10;21.58;;;6.70;;
56255;SDS011;57229;51.432;-2.598;2023-03-23T12:02:48;23.17;;;7.35;;
56255;SDS011;57229;51.432;-2.598;2023-03-23T12:05:43;23.27;;;6.93;;
56255;SDS011;57229;51.432;-2.598;2023-03-23T12:08:30;22.02;;;6.55;;
56255;SDS011;57229;51.432;-2.598;2023-03-23T12:11:37;15.52;;;6.07;;
56255;SDS011;57229;51.432;-2.598;2023-03-23T12:14:20;20.48;;;6.53;;
56255;SDS011;57229;51.432;-2.598;2023-03-23T12:28:51;12.95;;;6.05;;
56255;SDS011;57229;51.432;-2.598;2023-03-23T12:34:41;17.17;;;7.15;;
56255;SDS011;57229;51.432;-2.598;2023-03-23T12:42:57;26.00;;;6.88;;
56255;SDS011;57229;51.432;-2.598;2023-03-23T12:46:10;26.40;;;7.10;;
56255;SDS011;57229;51.432;-2.598;2023-03-23T12:48:49;24.67;;;6.75;;
56255;SDS011;57229;51.432;-2.598;2023-03-23T12:51:35;22.48;;;6.50;;
56255;SDS011;57229;51.432;-2.598;2023-03-23T12:54:21;31.07;;;7.20;;
56255;SDS011;57229;51.432;-2.598;2023-03-23T12:59:38;17.20;;;6.30;;
56255;SDS011;57229;51.432;-2.598;2023-03-23T13:02:24;25.05;;;6.97;;
56255;SDS011;57229;51.432;-2.598;2023-03-23T13:07:59;23.23;;;7.55;;
56255;SDS011;57229;51.432;-2.598;2023-03-23T13:11:05;24.88;;;7.40;;
56255;SDS011;57229;51.432;-2.598;2023-03-23T13:13:44;22.77;;;7.15;;
56255;SDS011;57229;51.432;-2.598;2023-03-23T13:22:03;28.00;;;6.93;;
56255;SDS011;57229;51.432;-2.598;2023-03-23T13:25:00;28.83;;;8.15;;
56255;SDS011;57229;51.432;-2.598;2023-03-23T13:27:33;25.52;;;7.30;;
56255;SDS011;57229;51.432;-2.598;2023-03-23T13:30:00;33.03;;;7.97;;
56255;SDS011;57229;51.432;-2.598;2023-03-23T13:32:36;21.13;;;7.60;;
56255;SDS011;57229;51.432;-2.598;2023-03-23T13:35:11;30.88;;;7.85;;
56255;SDS011;57229;51.432;-2.598;2023-03-23T13:37:47;29.20;;;7.70;;
56255;SDS011;57229;51.432;-2.598;2023-03-23T13:40:30;31.08;;;8.57;;
56255;SDS011;57229;51.432;-2.598;2023-03-23T13:43:36;32.80;;;8.23;;
56255;SDS011;57229;51.432;-2.598;2023-03-23T13:49:03;40.93;;;8.93;;
56255;SDS011;57229;51.432;-2.598;2023-03-23T13:51:47;49.70;;;9.57;;
56255;SDS011;57229;51.432;-2.598;2023-03-23T13:54:25;33.95;;;8.85;;
56255;SDS011;57229;51.432;-2.598;2023-03-23T14:11:01;33.05;;;7.78;;
56255;SDS011;57229;51.432;-2.598;2023-03-23T14:16:13;31.10;;;7.80;;
56255;SDS011;57229;51.432;-2.598;2023-03-23T14:18:40;38.10;;;10.05;;
56255;SDS011;57229;51.432;-2.598;2023-03-23T14:21:16;36.60;;;7.80;;
56255;SDS011;57229;51.432;-2.598;2023-03-23T14:23:47;25.02;;;6.65;;
56255;SDS011;57229;51.432;-2.598;2023-03-23T14:26:17;34.40;;;8.30;;
56255;SDS011;57229;51.432;-2.598;2023-03-23T14:28:50;18.40;;;6.70;;
56255;SDS011;57229;51.432;-2.598;2023-03-23T14:36:45;21.80;;;6.47;;
56255;SDS011;57229;51.432;-2.598;2023-03-23T14:39:43;17.33;;;6.10;;
56255;SDS011;57229;51.432;-2.598;2023-03-23T14:42:13;21.15;;;6.30;;
56255;SDS011;57229;51.432;-2.598;2023-03-23T14:47:49;17.25;;;6.18;;
56255;SDS011;57229;51.432;-2.598;2023-03-23T14:50:31;21.23;;;6.78;;
56255;SDS011;57229;51.432;-2.598;2023-03-23T14:53:03;21.27;;;7.13;;
56255;SDS011;57229;51.432;-2.598;2023-03-23T14:55:37;22.50;;;7.38;;
56255;SDS011;57229;51.432;-2.598;2023-03-23T14:58:07;14.73;;;6.22;;
56255;SDS011;57229;51.432;-2.598;2023-03-23T15:01:04;27.70;;;7.25;;
56255;SDS011;57229;51.432;-2.598;2023-03-23T15:03:32;26.77;;;7.15;;
56255;SDS011;57229;51.432;-2.598;2023-03-23T15:06:03;16.00;;;6.00;;
56255;SDS011;57229;51.432;-2.598;2023-03-23T15:08:32;16.45;;;6.47;;
56255;SDS011;57229;51.432;-2.598;2023-03-23T15:13:42;16.35;;;6.93;;
56255;SDS011;57229;51.432;-2.598;2023-03-23T15:16:19;24.08;;;8.20;;
56255;SDS011;57229;51.432;-2.598;2023-03-23T15:19:11;19.50;;;6.65;;
56255;SDS011;57229;51.432;-2.598;2023-03-23T15:21:49;30.80;;;7.15;;
56255;SDS011;57229;51.432;-2.598;2023-03-23T15:24:21;28.65;;;7.75;;
56255;SDS011;57229;51.432;-2.598;2023-03-23T15:26:51;25.15;;;6.78;;
56255;SDS011;57229;51.432;-2.598;2023-03-23T15:29:18;27.88;;;7.15;;
56255;SDS011;57229;51.432;-2.598;2023-03-23T15:31:49;17.40;;;6.65;;
56255;SDS011;57229;51.432;-2.598;2023-03-23T15:34:27;31.70;;;7.70;;
56255;SDS011;57229;51.432;-2.598;2023-03-23T15:37:03;25.25;;;7.10;;
56255;SDS011;57229;51.432;-2.598;2023-03-23T15:39:30;26.48;;;8.07;;
56255;SDS011;57229;51.432;-2.598;2023-03-23T15:41:57;33.85;;;7.93;;
56255;SDS011;57229;51.432;-2.598;2023-03-23T15:47:01;22.25;;;7.07;;
56255;SDS011;57229;51.432;-2.598;2023-03-23T15:49:39;30.70;;;7.40;;
56255;SDS011;57229;51.432;-2.598;2023-03-23T15:52:07;26.63;;;6.93;;
56255;SDS011;57229;51.432;-2.598;2023-03-23T15:54:37;25.98;;;7.07;;
56255;SDS011;57229;51.432;-2.598;2023-03-23T15:57:03;21.10;;;6.20;;
56255;SDS011;57229;51.432;-2.598;2023-03-23T15:59:29;19.27;;;6.28;;
56255;SDS011;57229;51.432;-2.598;2023-03-23T16:01:58;25.05;;;6.55;;
56255;SDS011;57229;51.432;-2.598;2023-03-23T16:04:23;18.40;;;6.13;;
56255;SDS011;57229;51.432;-2.598;2023-03-23T16:06:51;15.55;;;5.82;;
56255;SDS011;57229;51.432;-2.598;2023-03-23T16:09:19;15.50;;;6.15;;
56255;SDS011;57229;51.432;-2.598;2023-03-23T16:11:45;19.27;;;6.10;;
56255;SDS011;57229;51.432;-2.598;2023-03-23T16:14:11;16.85;;;5.57;;
56255;SDS011;57229;51.432;-2.598;2023-03-23T16:16:38;18.00;;;5.95;;
56255;SDS011;57229;51.432;-2.598;2023-03-23T16:19:11;14.52;;;5.95;;
56255;SDS011;57229;51.432;-2.598;2023-03-23T16:21:38;15.90;;;6.18;;
56255;SDS011;57229;51.432;-2.598;2023-03-23T16:24:04;15.68;;;5.88;;
56255;SDS011;57229;51.432;-2.598;2023-03-23T16:26:30;13.80;;;5.72;;
56255;SDS011;57229;51.432;-2.598;2023-03-23T16:28:55;13.85;;;6.10;;
56255;SDS011;57229;51.432;-2.598;2023-03-23T16:31:21;16.10;;;5.60;;
56255;SDS011;57229;51.432;-2.598;2023-03-23T16:33:47;18.40;;;6.10;;
56255;SDS011;57229;51.432;-2.598;2023-03-23T16:46:05;21.63;;;6.80;;
56255;SDS011;57229;51.432;-2.598;2023-03-23T16:48:31;19.70;;;6.88;;
56255;SDS011;57229;51.432;-2.598;2023-03-23T16:50:57;16.10;;;6.82;;
56255;SDS011;57229;51.432;-2.598;2023-03-23T16:53:23;16.38;;;7.95;;
56255;SDS011;57229;51.432;-2.598;2023-03-23T16:55:50;10.57;;;5.50;;
56255;SDS011;57229;51.432;-2.598;2023-03-23T16:58:17;7.75;;;5.10;;
56255;SDS011;57229;51.432;-2.598;2023-03-23T17:00:46;10.88;;;5.03;;
56255;SDS011;57229;51.432;-2.598;2023-03-23T17:03:14;5.55;;;4.88;;
56255;SDS011;57229;51.432;-2.598;2023-03-23T17:05:42;7.80;;;5.00;;
56255;SDS011;57229;51.432;-2.598;2023-03-23T17:08:08;10.15;;;5.25;;
56255;SDS011;57229;51.432;-2.598;2023-03-23T17:10:36;11.27;;;5.20;;